Detalhes do Voo

Voltar

 DETALHES DO VÔO

Piloto: GLD712 Rian G. Aeronave: BEECH BARON 58 GOLD Distância: 269NM
Origem: SBSP Destino: SBLO Duração: 1.83
Validação: Validado Tipo: Regular Matrícula: PR-GQF
ZFW: 4590 Block Fuel/Init FOB 202/0 Combustível em Voo 197
Passageiros: 4 Carga: 864 Alternativo: SBBU
Hora da Decolagem: Velocidade de Cruzeiro: 160 Nível de Voo: 140
Regra Visual: IFR ICAO da Aeronave: BE58 Unidade de Peso: Lbs
Data: 16/01/2018 Observação: Rede: IVAO
Acidentou?: Não Comentários do Validador: Pontuação do Voo 120.12

 ROTA

ROTA SCB A428 LON
REMARKS OPR/GOLD VIRTUAL PIC/GLD712 PER/B RMK/NEG RNAV

 PENALIDADES DO VOO

Para entender como cada item é pontuado, consulte as regras de avaliação.

Nenhuma penalidade registrada para este voo.

 ANÁLISE DO POUSO

Vento durante o pouso: 60º/4 kt Proa durante o pouso: 4
V/S do Pouso: -139.95 ft/min IAS do Pouso: 74.71 kt
Força G no pouso: 1.5 G Bank no pouso: 0.3
Pitch no Pouso 6 Flaps no Pouso 2
Nav Lights ON Landing Lights ON
Beacon Lights ON Strobe Lights ON

 MAPA DO VOO

 PERFIL VERTICAL DO VOO

 EVENTOS PRINCIPAIS DO VOO

DATAEVENTOIASALTITUDE
2018-01-16 17:06:16 SIM ACARS version 1.4.002634
2018-01-16 17:06:17 BOARDING02634
2018-01-16 17:13:43 STARTING ENGINE 1 02634
2018-01-16 17:13:49 STARTING ENGINE 2 02634
2018-01-16 17:17:08 TAXI TO THE RWY 102634
2018-01-16 17:17:35 FLAPS SET TO POSITION 182634
2018-01-16 17:22:00 ROLLING FOR TAKE OFF492634
2018-01-16 17:22:10 TAKE OFF782635
2018-01-16 17:22:22 GEAR UP912711
2018-01-16 17:23:55 FLAPS SET TO POSITION 0884295
2018-01-16 17:27:10 CRUISE1445998
2018-01-16 17:29:40 CLIMBING1336220
2018-01-16 17:43:00 CRUISE8914085
2018-01-16 17:47:10 CLIMBING11614230
2018-01-16 17:50:00 CRUISE8215258
2018-01-16 19:04:22 DESCEND11715919
2018-01-16 19:21:14 The connection to Flight Sim has been lost984123
2018-01-16 19:21:20 Reconection to the sim984123
2018-01-16 19:22:03 FLAPS SET TO POSITION 1943597
2018-01-16 19:22:04 GEAR DOWN933594
2018-01-16 19:22:31 CRUISE943610
2018-01-16 19:23:01 DESCEND1123340
2018-01-16 19:24:03 FLAPS SET TO POSITION 21022700
2018-01-16 19:25:55 LANDING751871
2018-01-16 19:26:09 TAXI TO THE GATE201871
2018-01-16 19:26:46 FLAPS SET TO POSITION 001870
2018-01-16 19:29:40 STOPPING ENGINE 1 21870
2018-01-16 19:29:41 STOPPING ENGINE 2 21870

 DADOS DO ACARS

DATA IAS GS ALTITUDE COMBUSTÍVEL USADO OAT FASE DO VOO
2018-01-16 17:07:16 0 0 2634 1 9 BOARDING
2018-01-16 17:08:16 0 0 2634 1 28 BOARDING
2018-01-16 17:09:16 0 0 2634 1 28 BOARDING
2018-01-16 17:10:16 0 0 2634 1 28 BOARDING
2018-01-16 17:11:16 0 0 2634 1 28 BOARDING
2018-01-16 17:12:16 0 0 2634 1 28 BOARDING
2018-01-16 17:13:16 0 0 2634 1 28 BOARDING
2018-01-16 17:14:16 0 0 2634 1 28 BOARDING
2018-01-16 17:15:16 0 0 2634 1 28 BOARDING
2018-01-16 17:16:16 0 0 2634 1 28 BOARDING
2018-01-16 17:17:16 11 12 2634 1 28 TAXI TO THE RWY
2018-01-16 17:18:16 0 7 2634 2 28 TAXI TO THE RWY
2018-01-16 17:19:16 8 16 2634 2 28 TAXI TO THE RWY
2018-01-16 17:20:16 8 7 2634 2 28 TAXI TO THE RWY
2018-01-16 17:21:16 1 0 2634 3 28 TAXI TO THE RWY
2018-01-16 17:22:16 85 85 2667 4 27 CLIMBING
2018-01-16 17:23:16 96 104 3540 8 26 CLIMBING
2018-01-16 17:24:16 102 115 4561 11 24 CLIMBING
2018-01-16 17:25:16 132 149 5263 14 23 CLIMBING
2018-01-16 17:26:16 139 156 5921 17 22 CLIMBING
2018-01-16 17:27:16 143 160 5996 19 22 CRUISE
2018-01-16 17:28:16 138 155 5996 21 21 CRUISE
2018-01-16 17:29:16 137 154 5997 23 21 CRUISE
2018-01-16 17:30:16 130 149 6616 26 19 CLIMBING
2018-01-16 17:31:16 132 153 7305 29 17 CLIMBING
2018-01-16 17:32:16 125 146 8088 32 15 CLIMBING
2018-01-16 17:33:16 123 139 8882 34 13 CLIMBING
2018-01-16 17:34:16 114 131 9658 37 11 CLIMBING
2018-01-16 17:35:16 98 125 10396 39 10 CLIMBING
2018-01-16 17:36:16 91 112 11157 41 9 CLIMBING
2018-01-16 17:37:16 92 117 11685 44 8 CLIMBING
2018-01-16 17:38:16 91 119 12181 46 7 CLIMBING
2018-01-16 17:39:16 90 119 12647 48 7 CLIMBING
2018-01-16 17:40:16 96 125 13006 50 6 CLIMBING
2018-01-16 17:41:16 91 115 13482 52 5 CLIMBING
2018-01-16 17:42:16 82 103 13930 54 4 CLIMBING
2018-01-16 17:43:16 94 115 14085 56 4 CRUISE
2018-01-16 17:44:16 112 138 14074 57 4 CRUISE
2018-01-16 17:45:16 120 147 14068 59 4 CRUISE
2018-01-16 17:46:16 122 151 14070 61 4 CRUISE
2018-01-16 17:47:16 113 139 14272 63 3 CLIMBING
2018-01-16 17:48:16 97 120 14709 65 3 CLIMBING
2018-01-16 17:49:16 81 101 15124 66 2 CLIMBING
2018-01-16 17:50:16 82 101 15307 68 2 CRUISE
2018-01-16 17:51:16 80 99 15496 70 1 CRUISE
2018-01-16 17:52:16 77 96 15677 71 1 CRUISE
2018-01-16 17:53:16 74 93 15826 73 1 CRUISE
2018-01-16 17:54:16 74 93 15919 75 1 CRUISE
2018-01-16 17:55:16 74 93 16007 76 0 CRUISE
2018-01-16 17:56:16 76 95 16070 78 0 CRUISE
2018-01-16 17:57:16 84 106 16074 80 0 CRUISE
2018-01-16 17:58:16 93 117 16072 81 0 CRUISE
2018-01-16 17:59:16 99 125 16070 83 0 CRUISE
2018-01-16 18:00:16 104 131 16069 84 0 CRUISE
2018-01-16 18:01:16 106 134 16069 86 0 CRUISE
2018-01-16 18:02:16 107 136 16069 87 0 CRUISE
2018-01-16 18:03:16 109 137 16054 89 0 CRUISE
2018-01-16 18:04:16 109 137 16048 91 0 CRUISE
2018-01-16 18:05:16 109 137 16050 92 0 CRUISE
2018-01-16 18:06:16 108 136 16054 94 0 CRUISE
2018-01-16 18:07:16 109 137 16054 95 0 CRUISE
2018-01-16 18:08:16 109 137 16053 97 0 CRUISE
2018-01-16 18:09:16 109 137 16042 99 0 CRUISE
2018-01-16 18:10:16 109 137 16051 100 0 CRUISE
2018-01-16 18:11:16 109 137 16054 102 0 CRUISE
2018-01-16 18:12:16 108 136 16059 103 0 CRUISE
2018-01-16 18:13:16 109 137 16061 105 0 CRUISE
2018-01-16 18:14:16 109 137 16056 107 0 CRUISE
2018-01-16 18:15:16 111 137 16048 108 0 CRUISE
2018-01-16 18:16:16 110 137 16032 110 0 CRUISE
2018-01-16 18:17:16 110 138 16031 111 0 CRUISE
2018-01-16 18:18:16 110 139 16029 113 0 CRUISE
2018-01-16 18:19:16 109 139 16028 115 0 CRUISE
2018-01-16 18:20:16 109 139 16030 116 0 CRUISE
2018-01-16 18:21:16 109 139 16029 118 0 CRUISE
2018-01-16 18:22:16 110 138 16041 119 0 CRUISE
2018-01-16 18:23:16 110 136 16052 121 0 CRUISE
2018-01-16 18:24:16 109 136 16051 123 0 CRUISE
2018-01-16 18:25:16 106 132 16031 124 0 CRUISE
2018-01-16 18:26:16 107 132 16055 126 0 CRUISE
2018-01-16 18:27:16 108 134 16053 127 0 CRUISE
2018-01-16 18:28:16 109 135 16051 129 0 CRUISE
2018-01-16 18:29:16 110 135 16053 131 0 CRUISE
2018-01-16 18:30:16 110 135 16053 132 0 CRUISE
2018-01-16 18:31:16 109 135 16053 134 0 CRUISE
2018-01-16 18:32:16 110 136 16046 135 0 CRUISE
2018-01-16 18:33:16 110 135 16049 137 0 CRUISE
2018-01-16 18:34:16 110 137 16047 139 0 CRUISE
2018-01-16 18:35:16 110 138 16049 140 0 CRUISE
2018-01-16 18:36:16 110 138 16050 142 0 CRUISE
2018-01-16 18:37:16 110 138 16050 143 0 CRUISE
2018-01-16 18:38:17 108 136 16051 145 0 CRUISE
2018-01-16 18:39:16 120 149 16043 147 0 CRUISE
2018-01-16 18:40:16 115 141 16047 148 0 CRUISE
2018-01-16 18:41:31 113 139 16046 149 0 CRUISE
2018-01-16 18:42:22 112 138 16044 150 0 CRUISE
2018-01-16 18:43:16 111 137 16044 151 0 CRUISE
2018-01-16 18:44:16 110 136 16044 153 0 CRUISE
2018-01-16 18:45:32 110 136 16044 154 0 CRUISE
2018-01-16 18:46:16 110 136 16043 155 0 CRUISE
2018-01-16 18:47:16 110 137 16043 157 0 CRUISE
2018-01-16 18:48:16 110 138 16042 158 0 CRUISE
2018-01-16 18:49:16 110 138 16038 160 0 CRUISE
2018-01-16 18:50:16 110 137 16039 161 0 CRUISE
2018-01-16 18:51:16 114 146 16007 162 -16 CRUISE
2018-01-16 18:52:17 121 154 15999 164 -16 CRUISE
2018-01-16 18:53:16 124 158 15997 166 -16 CRUISE
2018-01-16 18:54:16 125 159 15997 168 -16 CRUISE
2018-01-16 18:55:16 125 160 15996 169 -16 CRUISE
2018-01-16 18:56:16 118 150 16008 171 0 CRUISE
2018-01-16 18:57:16 114 141 16050 173 0 CRUISE
2018-01-16 18:58:16 112 138 16051 174 0 CRUISE
2018-01-16 18:59:16 111 137 16052 176 0 CRUISE
2018-01-16 19:00:23 111 137 16045 177 0 CRUISE
2018-01-16 19:01:16 111 137 16040 179 0 CRUISE
2018-01-16 19:02:16 111 137 16039 180 0 CRUISE
2018-01-16 19:03:16 111 137 16035 182 1 CRUISE
2018-01-16 19:04:16 115 142 15961 184 1 CRUISE
2018-01-16 19:05:16 138 170 15335 185 2 DESCEND
2018-01-16 19:06:16 148 180 14652 187 3 DESCEND
2018-01-16 19:07:16 141 173 13944 188 4 DESCEND
2018-01-16 19:08:16 134 173 13050 189 5 DESCEND
2018-01-16 19:09:16 141 181 12088 190 6 DESCEND
2018-01-16 19:10:16 147 182 11100 191 9 DESCEND
2018-01-16 19:11:16 152 181 10108 192 11 DESCEND
2018-01-16 19:12:16 135 156 9090 193 13 DESCEND
2018-01-16 19:13:16 116 131 8223 193 15 DESCEND
2018-01-16 19:14:16 109 117 7505 193 17 DESCEND
2018-01-16 19:15:16 102 120 6766 194 18 DESCEND
2018-01-16 19:16:16 106 127 6113 194 20 DESCEND
2018-01-16 19:17:16 112 129 5349 194 21 DESCEND
2018-01-16 19:18:16 93 110 4981 195 22 DESCEND
2018-01-16 19:19:16 93 111 4490 195 23 DESCEND
2018-01-16 19:22:20 89 102 3592 197 24 DESCEND
2018-01-16 19:23:20 110 122 3151 198 24 DESCEND
2018-01-16 19:24:20 96 105 2563 200 25 DESCEND
2018-01-16 19:25:20 92 100 2101 201 25 DESCEND
2018-01-16 19:26:20 3 6 1870 202 25 TAXI TO THE GATE
2018-01-16 19:27:20 15 18 1870 202 25 TAXI TO THE GATE
2018-01-16 19:28:20 8 7 1870 202 25 TAXI TO THE GATE
2018-01-16 19:29:20 12 10 1870 203 25 TAXI TO THE GATE
2018-01-16 19:30:20 2 0 1870 203 25 TAXI TO THE GATE
2018-01-16 19:31:21 2 0 1870 203 25 TAXI TO THE GATE
2018-01-16 19:32:20 2 0 1870 203 25 TAXI TO THE GATE